sensor_id;sensor_type;location;lat;lon;timestamp;temperature;humidity
62154;DHT22;48140;45.486;9.226;2023-12-29T00:01:45;9.60;99.90
62154;DHT22;48140;45.486;9.226;2023-12-29T00:04:11;9.70;99.90
62154;DHT22;48140;45.486;9.226;2023-12-29T00:06:40;9.80;99.90
62154;DHT22;48140;45.486;9.226;2023-12-29T00:09:06;9.70;99.90
62154;DHT22;48140;45.486;9.226;2023-12-29T00:11:32;9.70;99.90
62154;DHT22;48140;45.486;9.226;2023-12-29T00:13:58;9.70;99.90
62154;DHT22;48140;45.486;9.226;2023-12-29T00:16:27;9.70;99.90
62154;DHT22;48140;45.486;9.226;2023-12-29T00:18:53;9.70;99.90
62154;DHT22;48140;45.486;9.226;2023-12-29T00:21:18;9.70;99.90
62154;DHT22;48140;45.486;9.226;2023-12-29T00:23:44;9.80;99.90
62154;DHT22;48140;45.486;9.226;2023-12-29T00:26:09;9.80;99.90
62154;DHT22;48140;45.486;9.226;2023-12-29T00:28:35;9.70;99.90
62154;DHT22;48140;45.486;9.226;2023-12-29T00:31:02;9.70;99.90
62154;DHT22;48140;45.486;9.226;2023-12-29T00:33:27;9.70;99.90
62154;DHT22;48140;45.486;9.226;2023-12-29T00:35:54;9.70;99.90
62154;DHT22;48140;45.486;9.226;2023-12-29T00:38:20;9.70;99.90
62154;DHT22;48140;45.486;9.226;2023-12-29T00:40:45;9.70;99.90
62154;DHT22;48140;45.486;9.226;2023-12-29T00:43:11;9.70;99.90
62154;DHT22;48140;45.486;9.226;2023-12-29T00:45:37;9.70;99.90
62154;DHT22;48140;45.486;9.226;2023-12-29T00:48:02;9.70;99.90
62154;DHT22;48140;45.486;9.226;2023-12-29T00:50:28;9.60;99.90
62154;DHT22;48140;45.486;9.226;2023-12-29T00:52:53;9.60;99.90
62154;DHT22;48140;45.486;9.226;2023-12-29T00:55:19;9.70;99.90
62154;DHT22;48140;45.486;9.226;2023-12-29T00:57:45;9.60;99.90
62154;DHT22;48140;45.486;9.226;2023-12-29T01:00:11;9.60;99.90
62154;DHT22;48140;45.486;9.226;2023-12-29T01:02:37;9.70;99.90
62154;DHT22;48140;45.486;9.226;2023-12-29T01:05:02;9.70;99.90
62154;DHT22;48140;45.486;9.226;2023-12-29T01:07:28;9.60;99.90
62154;DHT22;48140;45.486;9.226;2023-12-29T01:09:53;9.60;99.90
62154;DHT22;48140;45.486;9.226;2023-12-29T01:12:19;9.60;99.90
62154;DHT22;48140;45.486;9.226;2023-12-29T01:14:44;9.50;99.90
62154;DHT22;48140;45.486;9.226;2023-12-29T01:17:10;9.50;99.90
62154;DHT22;48140;45.486;9.226;2023-12-29T01:19:35;9.50;99.90
62154;DHT22;48140;45.486;9.226;2023-12-29T01:22:01;9.50;99.90
62154;DHT22;48140;45.486;9.226;2023-12-29T01:24:26;9.50;99.90
62154;DHT22;48140;45.486;9.226;2023-12-29T01:26:52;9.50;99.90
62154;DHT22;48140;45.486;9.226;2023-12-29T01:29:17;9.50;99.90
62154;DHT22;48140;45.486;9.226;2023-12-29T01:31:43;9.50;99.90
62154;DHT22;48140;45.486;9.226;2023-12-29T01:34:08;9.50;99.90
62154;DHT22;48140;45.486;9.226;2023-12-29T01:36:34;9.50;99.90
62154;DHT22;48140;45.486;9.226;2023-12-29T01:38:59;9.40;99.90
62154;DHT22;48140;45.486;9.226;2023-12-29T01:41:25;9.40;99.90
62154;DHT22;48140;45.486;9.226;2023-12-29T01:46:26;9.40;99.90
62154;DHT22;48140;45.486;9.226;2023-12-29T01:48:53;9.50;99.90
62154;DHT22;48140;45.486;9.226;2023-12-29T01:51:20;9.50;99.90
62154;DHT22;48140;45.486;9.226;2023-12-29T01:53:45;9.50;99.90
62154;DHT22;48140;45.486;9.226;2023-12-29T01:56:11;9.40;99.90
62154;DHT22;48140;45.486;9.226;2023-12-29T01:58:37;9.40;99.90
62154;DHT22;48140;45.486;9.226;2023-12-29T02:01:02;9.40;99.90
62154;DHT22;48140;45.486;9.226;2023-12-29T02:03:29;9.30;99.90
62154;DHT22;48140;45.486;9.226;2023-12-29T02:05:54;9.40;99.90
62154;DHT22;48140;45.486;9.226;2023-12-29T02:08:21;9.50;99.90
62154;DHT22;48140;45.486;9.226;2023-12-29T02:10:46;9.30;99.90
62154;DHT22;48140;45.486;9.226;2023-12-29T02:13:13;9.40;99.90
62154;DHT22;48140;45.486;9.226;2023-12-29T02:15:39;9.40;99.90
62154;DHT22;48140;45.486;9.226;2023-12-29T02:18:06;9.40;99.90
62154;DHT22;48140;45.486;9.226;2023-12-29T02:20:32;9.40;99.90
62154;DHT22;48140;45.486;9.226;2023-12-29T02:22:58;9.40;99.90
62154;DHT22;48140;45.486;9.226;2023-12-29T02:25:24;9.30;99.90
62154;DHT22;48140;45.486;9.226;2023-12-29T02:27:51;9.40;99.90
62154;DHT22;48140;45.486;9.226;2023-12-29T02:30:33;9.30;99.90
62154;DHT22;48140;45.486;9.226;2023-12-29T02:33:04;9.40;99.90
62154;DHT22;48140;45.486;9.226;2023-12-29T02:35:32;9.20;99.90
62154;DHT22;48140;45.486;9.226;2023-12-29T02:37:58;9.20;99.90
62154;DHT22;48140;45.486;9.226;2023-12-29T02:40:25;9.20;99.90
62154;DHT22;48140;45.486;9.226;2023-12-29T02:42:50;9.20;99.90
62154;DHT22;48140;45.486;9.226;2023-12-29T02:45:16;9.30;99.90
62154;DHT22;48140;45.486;9.226;2023-12-29T02:47:42;9.30;99.90
62154;DHT22;48140;45.486;9.226;2023-12-29T02:50:08;9.30;99.90
62154;DHT22;48140;45.486;9.226;2023-12-29T02:52:33;9.30;99.90
62154;DHT22;48140;45.486;9.226;2023-12-29T02:54:59;9.30;99.90
62154;DHT22;48140;45.486;9.226;2023-12-29T02:57:24;9.20;99.90
62154;DHT22;48140;45.486;9.226;2023-12-29T02:59:50;9.20;99.90
62154;DHT22;48140;45.486;9.226;2023-12-29T03:02:15;9.30;99.90
62154;DHT22;48140;45.486;9.226;2023-12-29T03:04:42;9.20;99.90
62154;DHT22;48140;45.486;9.226;2023-12-29T03:07:07;9.20;99.90
62154;DHT22;48140;45.486;9.226;2023-12-29T03:09:33;9.20;99.90
62154;DHT22;48140;45.486;9.226;2023-12-29T03:11:59;9.20;99.90
62154;DHT22;48140;45.486;9.226;2023-12-29T03:14:24;9.20;99.90
62154;DHT22;48140;45.486;9.226;2023-12-29T03:16:50;9.30;99.90
62154;DHT22;48140;45.486;9.226;2023-12-29T03:19:15;9.30;99.90
62154;DHT22;48140;45.486;9.226;2023-12-29T03:21:41;9.30;99.90
62154;DHT22;48140;45.486;9.226;2023-12-29T03:24:06;9.30;99.90
62154;DHT22;48140;45.486;9.226;2023-12-29T03:26:32;9.40;99.90
62154;DHT22;48140;45.486;9.226;2023-12-29T03:28:57;9.40;99.90
62154;DHT22;48140;45.486;9.226;2023-12-29T03:31:22;9.20;99.90
62154;DHT22;48140;45.486;9.226;2023-12-29T03:33:48;9.20;99.90
62154;DHT22;48140;45.486;9.226;2023-12-29T03:36:13;9.20;99.90
62154;DHT22;48140;45.486;9.226;2023-12-29T03:38:39;9.20;99.90
62154;DHT22;48140;45.486;9.226;2023-12-29T03:41:04;9.10;99.90
62154;DHT22;48140;45.486;9.226;2023-12-29T03:43:30;9.10;99.90
62154;DHT22;48140;45.486;9.226;2023-12-29T03:45:55;9.10;99.90
62154;DHT22;48140;45.486;9.226;2023-12-29T03:48:21;9.10;99.90
62154;DHT22;48140;45.486;9.226;2023-12-29T03:50:47;9.10;99.90
62154;DHT22;48140;45.486;9.226;2023-12-29T03:53:12;9.10;99.90
62154;DHT22;48140;45.486;9.226;2023-12-29T03:55:41;9.00;99.90
62154;DHT22;48140;45.486;9.226;2023-12-29T03:58:06;9.20;99.90
62154;DHT22;48140;45.486;9.226;2023-12-29T04:00:32;9.10;99.90
62154;DHT22;48140;45.486;9.226;2023-12-29T04:02:58;9.10;99.90
62154;DHT22;48140;45.486;9.226;2023-12-29T04:05:23;9.20;99.90
62154;DHT22;48140;45.486;9.226;2023-12-29T04:07:48;9.10;99.90
62154;DHT22;48140;45.486;9.226;2023-12-29T04:10:14;9.00;99.90
62154;DHT22;48140;45.486;9.226;2023-12-29T04:12:41;9.00;99.90
62154;DHT22;48140;45.486;9.226;2023-12-29T04:15:07;8.90;99.90
62154;DHT22;48140;45.486;9.226;2023-12-29T04:17:33;9.00;99.90
62154;DHT22;48140;45.486;9.226;2023-12-29T04:19:58;9.00;99.90
62154;DHT22;48140;45.486;9.226;2023-12-29T04:22:25;9.00;99.90
62154;DHT22;48140;45.486;9.226;2023-12-29T04:24:50;9.10;99.90
62154;DHT22;48140;45.486;9.226;2023-12-29T04:27:28;9.00;99.90
62154;DHT22;48140;45.486;9.226;2023-12-29T04:29:53;9.10;99.90
62154;DHT22;48140;45.486;9.226;2023-12-29T04:32:19;9.10;99.90
62154;DHT22;48140;45.486;9.226;2023-12-29T04:34:44;9.10;99.90
62154;DHT22;48140;45.486;9.226;2023-12-29T04:37:10;9.10;99.90
62154;DHT22;48140;45.486;9.226;2023-12-29T04:39:37;9.10;99.90
62154;DHT22;48140;45.486;9.226;2023-12-29T04:42:02;9.20;99.90
62154;DHT22;48140;45.486;9.226;2023-12-29T04:44:28;9.20;99.90
62154;DHT22;48140;45.486;9.226;2023-12-29T04:46:53;9.20;99.90
62154;DHT22;48140;45.486;9.226;2023-12-29T04:49:19;9.20;99.90
62154;DHT22;48140;45.486;9.226;2023-12-29T04:51:44;9.20;99.90
62154;DHT22;48140;45.486;9.226;2023-12-29T04:54:11;9.20;99.90
62154;DHT22;48140;45.486;9.226;2023-12-29T04:56:37;9.10;99.90
62154;DHT22;48140;45.486;9.226;2023-12-29T04:59:02;9.20;99.90
62154;DHT22;48140;45.486;9.226;2023-12-29T05:01:28;9.10;99.90
62154;DHT22;48140;45.486;9.226;2023-12-29T05:03:53;9.10;99.90
62154;DHT22;48140;45.486;9.226;2023-12-29T05:06:19;9.10;99.90
62154;DHT22;48140;45.486;9.226;2023-12-29T05:08:45;9.20;99.90
62154;DHT22;48140;45.486;9.226;2023-12-29T05:11:11;9.10;99.90
62154;DHT22;48140;45.486;9.226;2023-12-29T05:13:36;9.10;99.90
62154;DHT22;48140;45.486;9.226;2023-12-29T05:16:02;9.10;99.90
62154;DHT22;48140;45.486;9.226;2023-12-29T05:18:29;9.10;99.90
62154;DHT22;48140;45.486;9.226;2023-12-29T05:20:55;9.10;99.90
62154;DHT22;48140;45.486;9.226;2023-12-29T05:23:21;9.10;99.90
62154;DHT22;48140;45.486;9.226;2023-12-29T05:25:46;9.10;99.90
62154;DHT22;48140;45.486;9.226;2023-12-29T05:28:12;9.10;99.90
62154;DHT22;48140;45.486;9.226;2023-12-29T05:30:37;9.00;99.90
62154;DHT22;48140;45.486;9.226;2023-12-29T05:33:03;9.00;99.90
62154;DHT22;48140;45.486;9.226;2023-12-29T05:35:28;9.00;99.90
62154;DHT22;48140;45.486;9.226;2023-12-29T05:37:54;9.10;99.90
62154;DHT22;48140;45.486;9.226;2023-12-29T05:40:19;9.00;99.90
62154;DHT22;48140;45.486;9.226;2023-12-29T05:42:45;9.00;99.90
62154;DHT22;48140;45.486;9.226;2023-12-29T05:45:10;9.10;99.90
62154;DHT22;48140;45.486;9.226;2023-12-29T05:47:36;9.00;99.90
62154;DHT22;48140;45.486;9.226;2023-12-29T05:50:01;9.00;99.90
62154;DHT22;48140;45.486;9.226;2023-12-29T05:52:27;9.00;99.90
62154;DHT22;48140;45.486;9.226;2023-12-29T05:54:54;9.00;99.90
62154;DHT22;48140;45.486;9.226;2023-12-29T05:57:19;9.10;99.90
62154;DHT22;48140;45.486;9.226;2023-12-29T05:59:45;9.10;99.90
62154;DHT22;48140;45.486;9.226;2023-12-29T06:02:10;9.10;99.90
62154;DHT22;48140;45.486;9.226;2023-12-29T06:04:36;9.10;99.90
62154;DHT22;48140;45.486;9.226;2023-12-29T06:07:01;9.10;99.90
62154;DHT22;48140;45.486;9.226;2023-12-29T06:09:27;9.10;99.90
62154;DHT22;48140;45.486;9.226;2023-12-29T06:11:53;9.20;99.90
62154;DHT22;48140;45.486;9.226;2023-12-29T06:14:18;9.20;99.90
62154;DHT22;48140;45.486;9.226;2023-12-29T06:16:44;9.10;99.90
62154;DHT22;48140;45.486;9.226;2023-12-29T06:19:09;9.10;99.90
62154;DHT22;48140;45.486;9.226;2023-12-29T06:21:41;9.10;99.90
62154;DHT22;48140;45.486;9.226;2023-12-29T06:24:08;9.10;99.90
62154;DHT22;48140;45.486;9.226;2023-12-29T06:26:34;9.10;99.90
62154;DHT22;48140;45.486;9.226;2023-12-29T06:29:00;9.10;99.90
62154;DHT22;48140;45.486;9.226;2023-12-29T06:31:25;9.10;99.90
62154;DHT22;48140;45.486;9.226;2023-12-29T06:33:51;9.20;99.90
62154;DHT22;48140;45.486;9.226;2023-12-29T06:36:16;9.20;99.90
62154;DHT22;48140;45.486;9.226;2023-12-29T06:38:42;9.20;99.90
62154;DHT22;48140;45.486;9.226;2023-12-29T06:41:11;9.20;99.90
62154;DHT22;48140;45.486;9.226;2023-12-29T06:43:38;9.20;99.90
62154;DHT22;48140;45.486;9.226;2023-12-29T06:46:03;9.30;99.90
62154;DHT22;48140;45.486;9.226;2023-12-29T06:48:29;9.30;99.90
62154;DHT22;48140;45.486;9.226;2023-12-29T06:50:55;9.30;99.90
62154;DHT22;48140;45.486;9.226;2023-12-29T06:53:20;9.30;99.90
62154;DHT22;48140;45.486;9.226;2023-12-29T06:55:46;9.30;99.90
62154;DHT22;48140;45.486;9.226;2023-12-29T06:58:11;9.30;99.90
62154;DHT22;48140;45.486;9.226;2023-12-29T07:00:37;9.40;99.90
62154;DHT22;48140;45.486;9.226;2023-12-29T07:03:02;9.30;99.90
62154;DHT22;48140;45.486;9.226;2023-12-29T07:05:28;9.40;99.90
62154;DHT22;48140;45.486;9.226;2023-12-29T07:07:53;9.40;99.90
62154;DHT22;48140;45.486;9.226;2023-12-29T07:10:19;9.40;99.90
62154;DHT22;48140;45.486;9.226;2023-12-29T07:12:44;9.40;99.90
62154;DHT22;48140;45.486;9.226;2023-12-29T07:15:10;9.40;99.90
62154;DHT22;48140;45.486;9.226;2023-12-29T07:17:39;9.40;99.90
62154;DHT22;48140;45.486;9.226;2023-12-29T07:20:05;9.40;99.90
62154;DHT22;48140;45.486;9.226;2023-12-29T07:22:32;9.40;99.90
62154;DHT22;48140;45.486;9.226;2023-12-29T07:24:58;9.50;99.90
62154;DHT22;48140;45.486;9.226;2023-12-29T07:27:24;9.50;99.90
62154;DHT22;48140;45.486;9.226;2023-12-29T07:29:49;9.50;99.90
62154;DHT22;48140;45.486;9.226;2023-12-29T07:32:15;9.50;99.90
62154;DHT22;48140;45.486;9.226;2023-12-29T07:34:40;9.50;99.90
62154;DHT22;48140;45.486;9.226;2023-12-29T07:37:06;9.50;99.90
62154;DHT22;48140;45.486;9.226;2023-12-29T07:39:31;9.50;99.90
62154;DHT22;48140;45.486;9.226;2023-12-29T07:41:57;9.50;99.90
62154;DHT22;48140;45.486;9.226;2023-12-29T07:44:22;9.50;99.90
62154;DHT22;48140;45.486;9.226;2023-12-29T07:46:48;9.60;99.90
62154;DHT22;48140;45.486;9.226;2023-12-29T07:49:13;9.50;99.90
62154;DHT22;48140;45.486;9.226;2023-12-29T07:51:39;9.60;99.90
62154;DHT22;48140;45.486;9.226;2023-12-29T07:54:06;9.60;99.90
62154;DHT22;48140;45.486;9.226;2023-12-29T07:56:32;9.60;99.90
62154;DHT22;48140;45.486;9.226;2023-12-29T07:58:57;9.70;99.90
62154;DHT22;48140;45.486;9.226;2023-12-29T08:01:23;9.60;99.90
62154;DHT22;48140;45.486;9.226;2023-12-29T08:03:48;9.60;99.90
62154;DHT22;48140;45.486;9.226;2023-12-29T08:06:14;9.50;99.90
62154;DHT22;48140;45.486;9.226;2023-12-29T08:08:40;9.50;99.90
62154;DHT22;48140;45.486;9.226;2023-12-29T08:11:05;9.50;99.90
62154;DHT22;48140;45.486;9.226;2023-12-29T08:13:31;9.50;99.90
62154;DHT22;48140;45.486;9.226;2023-12-29T08:15:56;9.60;99.90
62154;DHT22;48140;45.486;9.226;2023-12-29T08:18:22;9.60;99.90
62154;DHT22;48140;45.486;9.226;2023-12-29T08:20:47;9.60;99.90
62154;DHT22;48140;45.486;9.226;2023-12-29T08:23:13;9.70;99.90
62154;DHT22;48140;45.486;9.226;2023-12-29T08:25:38;9.70;99.90
62154;DHT22;48140;45.486;9.226;2023-12-29T08:28:04;9.70;99.90
62154;DHT22;48140;45.486;9.226;2023-12-29T08:30:30;9.70;99.90
62154;DHT22;48140;45.486;9.226;2023-12-29T08:32:56;9.70;99.90
62154;DHT22;48140;45.486;9.226;2023-12-29T08:35:21;9.80;99.90
62154;DHT22;48140;45.486;9.226;2023-12-29T08:37:47;9.80;99.90
62154;DHT22;48140;45.486;9.226;2023-12-29T08:40:12;10.50;99.90
62154;DHT22;48140;45.486;9.226;2023-12-29T08:42:38;9.90;99.90
62154;DHT22;48140;45.486;9.226;2023-12-29T08:45:04;9.90;99.90
62154;DHT22;48140;45.486;9.226;2023-12-29T08:47:30;9.90;99.90
62154;DHT22;48140;45.486;9.226;2023-12-29T08:49:55;10.00;99.90
62154;DHT22;48140;45.486;9.226;2023-12-29T08:52:21;10.00;99.90
62154;DHT22;48140;45.486;9.226;2023-12-29T08:54:46;10.00;99.90
62154;DHT22;48140;45.486;9.226;2023-12-29T08:57:13;10.10;99.90
62154;DHT22;48140;45.486;9.226;2023-12-29T08:59:38;10.00;99.90
62154;DHT22;48140;45.486;9.226;2023-12-29T09:02:04;10.00;99.90
62154;DHT22;48140;45.486;9.226;2023-12-29T09:04:29;10.00;99.90
62154;DHT22;48140;45.486;9.226;2023-12-29T09:06:54;10.00;99.90
62154;DHT22;48140;45.486;9.226;2023-12-29T09:09:20;10.00;99.90
62154;DHT22;48140;45.486;9.226;2023-12-29T09:11:46;10.00;99.90
62154;DHT22;48140;45.486;9.226;2023-12-29T09:14:12;10.10;99.90
62154;DHT22;48140;45.486;9.226;2023-12-29T09:16:38;10.10;99.90
62154;DHT22;48140;45.486;9.226;2023-12-29T09:19:03;10.20;99.90
62154;DHT22;48140;45.486;9.226;2023-12-29T09:21:29;10.30;99.90
62154;DHT22;48140;45.486;9.226;2023-12-29T09:23:54;10.30;99.90
62154;DHT22;48140;45.486;9.226;2023-12-29T09:26:20;10.40;99.90
62154;DHT22;48140;45.486;9.226;2023-12-29T09:28:45;10.40;99.90
62154;DHT22;48140;45.486;9.226;2023-12-29T09:31:11;10.40;99.90
62154;DHT22;48140;45.486;9.226;2023-12-29T09:33:37;10.50;99.90
62154;DHT22;48140;45.486;9.226;2023-12-29T09:36:03;10.50;99.90
62154;DHT22;48140;45.486;9.226;2023-12-29T09:38:29;10.50;99.90
62154;DHT22;48140;45.486;9.226;2023-12-29T09:40:59;10.50;99.90
62154;DHT22;48140;45.486;9.226;2023-12-29T09:43:25;10.50;99.90
62154;DHT22;48140;45.486;9.226;2023-12-29T09:45:51;10.50;99.90
62154;DHT22;48140;45.486;9.226;2023-12-29T09:48:17;10.50;99.90
62154;DHT22;48140;45.486;9.226;2023-12-29T09:50:45;10.40;99.90
62154;DHT22;48140;45.486;9.226;2023-12-29T09:53:11;10.50;99.90
62154;DHT22;48140;45.486;9.226;2023-12-29T09:55:38;10.50;99.90
62154;DHT22;48140;45.486;9.226;2023-12-29T09:58:04;10.40;99.90
62154;DHT22;48140;45.486;9.226;2023-12-29T10:00:30;10.40;99.90
62154;DHT22;48140;45.486;9.226;2023-12-29T10:02:56;10.30;99.90
62154;DHT22;48140;45.486;9.226;2023-12-29T10:05:23;10.40;99.90
62154;DHT22;48140;45.486;9.226;2023-12-29T10:07:48;10.40;99.90
62154;DHT22;48140;45.486;9.226;2023-12-29T10:10:15;10.40;99.90
62154;DHT22;48140;45.486;9.226;2023-12-29T10:12:42;10.30;99.90
62154;DHT22;48140;45.486;9.226;2023-12-29T10:25:31;10.40;99.90
62154;DHT22;48140;45.486;9.226;2023-12-29T10:27:56;10.40;99.90
62154;DHT22;48140;45.486;9.226;2023-12-29T10:30:22;10.40;99.90
62154;DHT22;48140;45.486;9.226;2023-12-29T10:32:51;10.30;99.90
62154;DHT22;48140;45.486;9.226;2023-12-29T10:35:17;10.30;99.90
62154;DHT22;48140;45.486;9.226;2023-12-29T10:37:43;10.40;99.90
62154;DHT22;48140;45.486;9.226;2023-12-29T10:40:08;10.30;99.90
62154;DHT22;48140;45.486;9.226;2023-12-29T10:42:34;10.30;99.90
62154;DHT22;48140;45.486;9.226;2023-12-29T10:45:07;10.20;99.90
62154;DHT22;48140;45.486;9.226;2023-12-29T10:47:33;10.30;99.90
62154;DHT22;48140;45.486;9.226;2023-12-29T10:50:00;10.40;99.90
62154;DHT22;48140;45.486;9.226;2023-12-29T10:52:26;10.40;99.90
62154;DHT22;48140;45.486;9.226;2023-12-29T10:55:00;10.40;99.90
62154;DHT22;48140;45.486;9.226;2023-12-29T10:57:28;10.40;99.90
62154;DHT22;48140;45.486;9.226;2023-12-29T10:59:54;10.50;99.90
62154;DHT22;48140;45.486;9.226;2023-12-29T11:02:20;10.50;99.90
62154;DHT22;48140;45.486;9.226;2023-12-29T11:04:46;10.40;99.90
62154;DHT22;48140;45.486;9.226;2023-12-29T11:07:12;10.40;99.90
62154;DHT22;48140;45.486;9.226;2023-12-29T11:09:38;10.30;99.90
62154;DHT22;48140;45.486;9.226;2023-12-29T11:12:04;10.20;99.90
62154;DHT22;48140;45.486;9.226;2023-12-29T11:14:30;10.30;99.90
62154;DHT22;48140;45.486;9.226;2023-12-29T11:16:56;10.30;99.90
62154;DHT22;48140;45.486;9.226;2023-12-29T11:19:21;10.30;99.90
62154;DHT22;48140;45.486;9.226;2023-12-29T11:21:48;10.30;99.90
62154;DHT22;48140;45.486;9.226;2023-12-29T11:24:16;10.20;99.90
62154;DHT22;48140;45.486;9.226;2023-12-29T11:26:42;10.30;99.90
62154;DHT22;48140;45.486;9.226;2023-12-29T11:29:09;10.40;99.90
62154;DHT22;48140;45.486;9.226;2023-12-29T11:31:34;10.40;99.90
62154;DHT22;48140;45.486;9.226;2023-12-29T11:34:03;10.50;99.90
62154;DHT22;48140;45.486;9.226;2023-12-29T11:36:32;10.60;99.90
62154;DHT22;48140;45.486;9.226;2023-12-29T11:39:00;10.50;99.90
62154;DHT22;48140;45.486;9.226;2023-12-29T11:43:55;10.60;99.90
62154;DHT22;48140;45.486;9.226;2023-12-29T11:46:38;10.60;99.90
62154;DHT22;48140;45.486;9.226;2023-12-29T11:49:04;10.60;99.90
62154;DHT22;48140;45.486;9.226;2023-12-29T11:51:34;10.60;99.90
62154;DHT22;48140;45.486;9.226;2023-12-29T11:54:01;10.60;99.90
62154;DHT22;48140;45.486;9.226;2023-12-29T11:56:33;10.70;99.90
62154;DHT22;48140;45.486;9.226;2023-12-29T11:59:15;10.70;99.90
62154;DHT22;48140;45.486;9.226;2023-12-29T12:01:41;10.70;99.90
62154;DHT22;48140;45.486;9.226;2023-12-29T12:06:51;10.70;99.90
62154;DHT22;48140;45.486;9.226;2023-12-29T12:09:22;10.70;99.90
62154;DHT22;48140;45.486;9.226;2023-12-29T12:11:50;10.70;99.90
62154;DHT22;48140;45.486;9.226;2023-12-29T12:17:00;10.80;99.90
62154;DHT22;48140;45.486;9.226;2023-12-29T12:19:25;10.80;99.90
62154;DHT22;48140;45.486;9.226;2023-12-29T12:21:53;10.90;99.90
62154;DHT22;48140;45.486;9.226;2023-12-29T12:24:19;10.80;99.90
62154;DHT22;48140;45.486;9.226;2023-12-29T12:26:47;10.80;99.90
62154;DHT22;48140;45.486;9.226;2023-12-29T12:29:14;10.80;99.90
62154;DHT22;48140;45.486;9.226;2023-12-29T12:31:53;10.80;99.90
62154;DHT22;48140;45.486;9.226;2023-12-29T12:34:19;10.90;99.90
62154;DHT22;48140;45.486;9.226;2023-12-29T12:36:49;10.90;99.90
62154;DHT22;48140;45.486;9.226;2023-12-29T12:39:15;10.90;99.90
62154;DHT22;48140;45.486;9.226;2023-12-29T12:41:41;10.90;99.90
62154;DHT22;48140;45.486;9.226;2023-12-29T12:44:10;10.90;99.90
62154;DHT22;48140;45.486;9.226;2023-12-29T12:46:40;10.90;99.90
62154;DHT22;48140;45.486;9.226;2023-12-29T12:49:07;10.90;99.90
62154;DHT22;48140;45.486;9.226;2023-12-29T12:51:32;11.00;99.90
62154;DHT22;48140;45.486;9.226;2023-12-29T12:53:58;10.90;99.90
62154;DHT22;48140;45.486;9.226;2023-12-29T12:56:24;10.90;99.90
62154;DHT22;48140;45.486;9.226;2023-12-29T12:58:56;10.90;99.90
62154;DHT22;48140;45.486;9.226;2023-12-29T13:01:22;10.90;99.90
62154;DHT22;48140;45.486;9.226;2023-12-29T13:03:47;10.80;99.90
62154;DHT22;48140;45.486;9.226;2023-12-29T13:06:13;10.80;99.90
62154;DHT22;48140;45.486;9.226;2023-12-29T13:08:39;10.80;99.90
62154;DHT22;48140;45.486;9.226;2023-12-29T13:11:06;10.90;99.90
62154;DHT22;48140;45.486;9.226;2023-12-29T13:13:38;10.80;99.90
62154;DHT22;48140;45.486;9.226;2023-12-29T13:16:04;10.80;99.90
62154;DHT22;48140;45.486;9.226;2023-12-29T13:18:30;10.70;99.90
62154;DHT22;48140;45.486;9.226;2023-12-29T13:20:59;10.70;99.90
62154;DHT22;48140;45.486;9.226;2023-12-29T13:23:25;10.60;99.90
62154;DHT22;48140;45.486;9.226;2023-12-29T13:26:05;10.50;99.90
62154;DHT22;48140;45.486;9.226;2023-12-29T13:28:33;10.40;99.90
62154;DHT22;48140;45.486;9.226;2023-12-29T13:30:58;10.40;99.90
62154;DHT22;48140;45.486;9.226;2023-12-29T13:36:01;10.40;99.90
62154;DHT22;48140;45.486;9.226;2023-12-29T13:38:29;10.50;99.90
62154;DHT22;48140;45.486;9.226;2023-12-29T13:41:06;10.50;99.90
62154;DHT22;48140;45.486;9.226;2023-12-29T13:43:32;10.40;99.90
62154;DHT22;48140;45.486;9.226;2023-12-29T13:45:59;10.40;99.90
62154;DHT22;48140;45.486;9.226;2023-12-29T13:48:25;10.50;99.90
62154;DHT22;48140;45.486;9.226;2023-12-29T13:50:52;10.50;99.90
62154;DHT22;48140;45.486;9.226;2023-12-29T13:53:21;10.50;99.90
62154;DHT22;48140;45.486;9.226;2023-12-29T13:55:46;10.50;99.90
62154;DHT22;48140;45.486;9.226;2023-12-29T13:58:13;10.50;99.90
62154;DHT22;48140;45.486;9.226;2023-12-29T14:00:39;10.60;99.90
62154;DHT22;48140;45.486;9.226;2023-12-29T14:03:06;10.50;99.90
62154;DHT22;48140;45.486;9.226;2023-12-29T14:05:35;10.60;99.90
62154;DHT22;48140;45.486;9.226;2023-12-29T14:10:30;10.50;99.90
62154;DHT22;48140;45.486;9.226;2023-12-29T14:13:03;10.50;99.90
62154;DHT22;48140;45.486;9.226;2023-12-29T14:15:28;10.40;99.90
62154;DHT22;48140;45.486;9.226;2023-12-29T14:17:59;10.50;99.90
62154;DHT22;48140;45.486;9.226;2023-12-29T14:20:33;10.50;99.90
62154;DHT22;48140;45.486;9.226;2023-12-29T14:23:03;10.50;99.90
62154;DHT22;48140;45.486;9.226;2023-12-29T14:25:33;10.40;99.90
62154;DHT22;48140;45.486;9.226;2023-12-29T14:28:01;10.40;99.90
62154;DHT22;48140;45.486;9.226;2023-12-29T14:30:27;10.40;99.90
62154;DHT22;48140;45.486;9.226;2023-12-29T14:32:54;10.40;99.90
62154;DHT22;48140;45.486;9.226;2023-12-29T14:35:19;10.40;99.90
62154;DHT22;48140;45.486;9.226;2023-12-29T14:37:45;10.40;99.90
62154;DHT22;48140;45.486;9.226;2023-12-29T14:40:11;10.40;99.90
62154;DHT22;48140;45.486;9.226;2023-12-29T14:42:36;10.50;99.90
62154;DHT22;48140;45.486;9.226;2023-12-29T14:45:02;10.50;99.90
62154;DHT22;48140;45.486;9.226;2023-12-29T14:47:27;10.50;99.90
62154;DHT22;48140;45.486;9.226;2023-12-29T14:49:53;10.50;99.90
62154;DHT22;48140;45.486;9.226;2023-12-29T14:52:18;10.40;99.90
62154;DHT22;48140;45.486;9.226;2023-12-29T14:54:45;10.40;99.90
62154;DHT22;48140;45.486;9.226;2023-12-29T14:57:10;10.40;99.90
62154;DHT22;48140;45.486;9.226;2023-12-29T14:59:36;10.40;99.90
62154;DHT22;48140;45.486;9.226;2023-12-29T15:02:02;10.40;99.90
62154;DHT22;48140;45.486;9.226;2023-12-29T15:04:27;10.30;99.90
62154;DHT22;48140;45.486;9.226;2023-12-29T15:06:57;10.30;99.90
62154;DHT22;48140;45.486;9.226;2023-12-29T15:09:23;10.30;99.90
62154;DHT22;48140;45.486;9.226;2023-12-29T15:11:49;10.30;99.90
62154;DHT22;48140;45.486;9.226;2023-12-29T15:14:18;10.30;99.90
62154;DHT22;48140;45.486;9.226;2023-12-29T15:16:44;10.30;99.90
62154;DHT22;48140;45.486;9.226;2023-12-29T15:19:10;10.30;99.90
62154;DHT22;48140;45.486;9.226;2023-12-29T15:21:37;10.30;99.90
62154;DHT22;48140;45.486;9.226;2023-12-29T15:24:03;10.30;99.90
62154;DHT22;48140;45.486;9.226;2023-12-29T15:26:28;10.30;99.90
62154;DHT22;48140;45.486;9.226;2023-12-29T15:28:54;10.30;99.90
62154;DHT22;48140;45.486;9.226;2023-12-29T15:31:20;10.30;99.90
62154;DHT22;48140;45.486;9.226;2023-12-29T15:33:46;10.30;99.90
62154;DHT22;48140;45.486;9.226;2023-12-29T15:36:12;10.20;99.90
62154;DHT22;48140;45.486;9.226;2023-12-29T15:38:38;10.30;99.90
62154;DHT22;48140;45.486;9.226;2023-12-29T15:41:03;10.20;99.90
62154;DHT22;48140;45.486;9.226;2023-12-29T15:43:29;10.20;99.90
62154;DHT22;48140;45.486;9.226;2023-12-29T15:45:55;10.10;99.90
62154;DHT22;48140;45.486;9.226;2023-12-29T15:48:21;10.00;99.90
62154;DHT22;48140;45.486;9.226;2023-12-29T15:50:46;10.00;99.90
62154;DHT22;48140;45.486;9.226;2023-12-29T15:53:12;10.00;99.90
62154;DHT22;48140;45.486;9.226;2023-12-29T15:55:37;10.00;99.90
62154;DHT22;48140;45.486;9.226;2023-12-29T15:58:03;10.00;99.90
62154;DHT22;48140;45.486;9.226;2023-12-29T16:00:29;10.00;99.90